createdAt,value
2023-01-12T00:00:30.027Z,7.97
2023-01-12T00:01:32.615Z,7.91
2023-01-12T00:02:35.664Z,7.91
2023-01-12T00:03:37.419Z,7.92
2023-01-12T00:04:39.402Z,7.91
2023-01-12T00:05:41.227Z,7.92
2023-01-12T00:06:43.733Z,7.96
2023-01-12T00:07:45.668Z,7.97
2023-01-12T00:08:49.310Z,8.02
2023-01-12T00:09:51.247Z,8.10
2023-01-12T00:10:56.568Z,8.11
2023-01-12T00:11:58.633Z,8.12
2023-01-12T00:13:01.000Z,8.12
2023-01-12T00:14:03.203Z,8.21
2023-01-12T00:15:05.510Z,8.26
2023-01-12T00:16:26.311Z,8.37
2023-01-12T00:17:28.318Z,8.43
2023-01-12T00:18:32.513Z,8.60
2023-01-12T00:19:36.996Z,8.63
2023-01-12T00:20:38.842Z,8.63
2023-01-12T00:22:01.887Z,8.60
2023-01-12T00:23:03.655Z,8.58
2023-01-12T00:24:09.327Z,8.59
2023-01-12T00:25:11.311Z,8.55
2023-01-12T00:26:13.170Z,8.56
2023-01-12T00:27:19.219Z,8.52
2023-01-12T00:28:21.132Z,8.54
2023-01-12T00:29:24.530Z,8.63
2023-01-12T00:30:26.345Z,8.57
2023-01-12T00:31:28.389Z,8.52
2023-01-12T00:32:30.210Z,8.50
2023-01-12T00:33:32.497Z,8.51
2023-01-12T00:34:34.467Z,8.48
2023-01-12T00:35:36.259Z,8.53
2023-01-12T00:36:38.723Z,8.54
2023-01-12T00:37:40.698Z,8.53
2023-01-12T00:38:43.576Z,8.52
2023-01-12T00:40:00.969Z,8.48
2023-01-12T00:41:07.058Z,8.51
2023-01-12T00:42:27.593Z,8.46
2023-01-12T00:43:48.410Z,8.54
2023-01-12T00:45:08.413Z,8.57
2023-01-12T00:46:09.964Z,8.52
2023-01-12T00:47:13.370Z,8.54
2023-01-12T00:48:15.542Z,8.51
2023-01-12T00:49:17.614Z,8.53
2023-01-12T00:50:20.206Z,8.59
2023-01-12T00:51:22.140Z,8.55
2023-01-12T00:52:30.847Z,8.62
2023-01-12T00:53:33.688Z,8.66
2023-01-12T00:54:36.679Z,8.61
2023-01-12T00:55:38.513Z,8.54
2023-01-12T00:56:41.535Z,8.54
2023-01-12T00:57:44.603Z,8.53
2023-01-12T00:58:47.446Z,8.49
2023-01-12T00:59:49.596Z,8.47
2023-01-12T01:00:51.602Z,8.49
2023-01-12T01:01:53.636Z,8.56
2023-01-12T01:02:55.295Z,8.58
2023-01-12T01:03:56.881Z,8.57
2023-01-12T01:04:58.405Z,8.55
2023-01-12T01:06:07.423Z,8.61
2023-01-12T01:07:08.881Z,8.61
2023-01-12T01:08:10.429Z,8.60
2023-01-12T01:09:12.315Z,8.58
2023-01-12T01:10:16.087Z,8.56
2023-01-12T01:11:18.587Z,8.57
2023-01-12T01:12:20.572Z,8.56
2023-01-12T01:13:22.687Z,8.63
2023-01-12T01:14:25.204Z,8.66
2023-01-12T01:15:26.860Z,8.64
2023-01-12T01:16:29.827Z,8.59
2023-01-12T01:17:31.623Z,8.56
2023-01-12T01:18:34.414Z,8.64
2023-01-12T01:19:36.737Z,8.65
2023-01-12T01:20:38.906Z,8.67
2023-01-12T01:21:40.427Z,8.69
2023-01-12T01:22:42.125Z,8.73
2023-01-12T01:23:43.827Z,8.75
2023-01-12T01:24:45.288Z,8.78
2023-01-12T01:25:47.040Z,8.92
2023-01-12T01:26:50.310Z,8.87
2023-01-12T01:27:52.041Z,8.86
2023-01-12T01:28:53.891Z,8.88
2023-01-12T01:29:55.438Z,8.85
2023-01-12T01:31:04.637Z,8.87
2023-01-12T01:32:07.022Z,8.88
2023-01-12T01:33:08.625Z,8.92
2023-01-12T01:34:10.182Z,8.93
2023-01-12T01:35:11.691Z,8.94
2023-01-12T01:36:14.087Z,8.93
2023-01-12T01:37:15.785Z,8.94
2023-01-12T01:38:17.553Z,8.94
2023-01-12T01:39:19.013Z,8.95
2023-01-12T01:40:20.524Z,8.98
2023-01-12T01:41:25.744Z,9.01
2023-01-12T01:42:30.093Z,8.91
2023-01-12T01:43:55.065Z,8.96
2023-01-12T01:45:01.334Z,8.97
2023-01-12T01:46:12.849Z,8.94
2023-01-12T01:47:32.828Z,8.87
2023-01-12T01:48:39.124Z,8.94
2023-01-12T01:49:44.948Z,8.91
2023-01-12T01:50:57.558Z,8.85
2023-01-12T01:52:07.572Z,8.85
2023-01-12T01:53:19.963Z,8.81
2023-01-12T01:54:23.428Z,8.85
2023-01-12T01:55:52.948Z,8.84
2023-01-12T01:56:57.361Z,8.86
2023-01-12T01:58:07.635Z,8.83
2023-01-12T01:59:23.804Z,8.85
2023-01-12T02:00:26.309Z,8.83
2023-01-12T02:01:28.521Z,8.83
2023-01-12T02:02:31.342Z,8.80
2023-01-12T02:03:36.869Z,8.81
2023-01-12T02:04:39.853Z,8.78
2023-01-12T02:05:45.618Z,8.87
2023-01-12T02:06:49.013Z,8.88
2023-01-12T02:07:52.273Z,8.82
2023-01-12T02:08:58.386Z,8.81
2023-01-12T02:10:00.146Z,8.81
2023-01-12T02:11:03.331Z,8.81
2023-01-12T02:12:25.622Z,8.89
2023-01-12T02:13:49.415Z,8.86
2023-01-12T02:15:10.978Z,8.82
2023-01-12T02:16:37.257Z,8.86
2023-01-12T02:18:10.721Z,8.90
2023-01-12T02:19:35.349Z,8.85
2023-01-12T02:20:49.415Z,8.84
2023-01-12T02:21:53.995Z,8.80
2023-01-12T02:23:20.622Z,8.80
2023-01-12T02:25:06.749Z,8.82
2023-01-12T02:26:11.788Z,8.84
2023-01-12T02:27:32.539Z,8.83
2023-01-12T02:29:11.436Z,8.84
2023-01-12T02:30:47.365Z,8.80
2023-01-12T02:31:54.866Z,8.76
2023-01-12T02:33:08.787Z,8.75
2023-01-12T02:34:33.611Z,8.79
2023-01-12T02:35:50.468Z,8.78
2023-01-12T02:36:59.775Z,8.77
2023-01-12T02:38:36.156Z,8.75
2023-01-12T02:39:51.017Z,8.69
2023-01-12T02:41:04.086Z,8.68
2023-01-12T02:42:42.668Z,8.76
2023-01-12T02:43:45.324Z,8.82
2023-01-12T02:45:13.857Z,8.77
2023-01-12T02:46:32.124Z,8.79
2023-01-12T02:47:52.053Z,8.87
2023-01-12T02:49:02.930Z,8.87
2023-01-12T02:50:11.584Z,8.85
2023-01-12T02:51:32.370Z,8.79
2023-01-12T02:52:34.864Z,8.80
2023-01-12T02:54:01.454Z,8.77
2023-01-12T02:55:06.277Z,8.75
2023-01-12T02:56:08.391Z,8.76
2023-01-12T02:57:11.193Z,8.75
2023-01-12T02:58:17.742Z,8.82
2023-01-12T02:59:27.105Z,8.81
2023-01-12T03:00:30.621Z,8.76
2023-01-12T03:01:33.788Z,8.77
2023-01-12T03:02:38.533Z,8.84
2023-01-12T03:03:41.793Z,8.83
2023-01-12T03:04:43.798Z,8.81
2023-01-12T03:05:45.790Z,8.77
2023-01-12T03:06:56.575Z,8.75
2023-01-12T03:08:04.821Z,8.79
2023-01-12T03:09:06.715Z,8.81
2023-01-12T03:10:12.080Z,8.88
2023-01-12T03:11:18.325Z,8.90
2023-01-12T03:12:41.464Z,8.89
2023-01-12T03:13:55.033Z,8.90
2023-01-12T03:15:02.354Z,8.77
2023-01-12T03:16:07.592Z,8.74
2023-01-12T03:17:17.172Z,8.77
2023-01-12T03:18:32.168Z,8.74
2023-01-12T03:19:36.175Z,8.67
2023-01-12T03:20:45.862Z,8.65
2023-01-12T03:22:07.631Z,8.50
2023-01-12T03:23:16.941Z,8.60
2023-01-12T03:24:30.854Z,8.53
2023-01-12T03:25:35.779Z,8.44
2023-01-12T03:26:47.376Z,8.37
2023-01-12T03:27:56.333Z,8.32
2023-01-12T03:29:13.735Z,8.27
2023-01-12T03:30:38.812Z,8.23
2023-01-12T03:31:42.284Z,8.20
2023-01-12T03:32:44.401Z,8.23
2023-01-12T03:33:46.590Z,8.27
2023-01-12T03:34:48.869Z,8.27
2023-01-12T03:36:15.963Z,8.24
2023-01-12T03:37:32.465Z,8.17
2023-01-12T03:38:46.159Z,8.14
2023-01-12T03:40:07.413Z,8.16
2023-01-12T03:41:31.209Z,8.10
2023-01-12T03:43:26.890Z,8.11
2023-01-12T03:44:58.456Z,8.08
2023-01-12T03:46:12.466Z,8.01
2023-01-12T03:47:26.035Z,7.99
2023-01-12T03:48:46.483Z,8.04
2023-01-12T03:49:55.926Z,8.03
2023-01-12T03:51:03.628Z,8.05
2023-01-12T03:52:09.118Z,8.04
2023-01-12T03:53:15.850Z,7.96
2023-01-12T03:54:20.453Z,7.98
2023-01-12T03:55:24.961Z,7.90
2023-01-12T03:56:34.583Z,7.92
2023-01-12T03:57:39.092Z,7.92
2023-01-12T03:58:41.819Z,7.91
2023-01-12T03:59:44.106Z,7.89
2023-01-12T04:00:45.648Z,7.88
2023-01-12T04:01:49.059Z,7.94
2023-01-12T04:02:50.696Z,7.91
2023-01-12T04:03:52.517Z,7.89
2023-01-12T04:04:54.679Z,7.85
2023-01-12T04:05:57.519Z,7.85
2023-01-12T04:07:01.668Z,7.91
2023-01-12T04:08:03.871Z,7.98
2023-01-12T04:09:06.823Z,7.95
2023-01-12T04:10:09.134Z,7.90
2023-01-12T04:11:30.013Z,7.98
2023-01-12T04:12:33.042Z,7.98
2023-01-12T04:13:34.848Z,8.01
2023-01-12T04:14:42.097Z,7.99
2023-01-12T04:15:43.846Z,7.97
2023-01-12T04:16:46.972Z,8.02
2023-01-12T04:17:48.707Z,8.05
2023-01-12T04:18:50.746Z,8.09
2023-01-12T04:19:52.508Z,8.07
2023-01-12T04:20:54.292Z,8.11
2023-01-12T04:22:14.410Z,8.09
2023-01-12T04:23:16.118Z,8.14
2023-01-12T04:24:17.835Z,8.13
2023-01-12T04:25:22.644Z,8.15
2023-01-12T04:26:24.580Z,8.16
2023-01-12T04:27:26.461Z,8.19
2023-01-12T04:28:29.681Z,8.19
2023-01-12T04:29:31.525Z,8.16
2023-01-12T04:30:34.796Z,8.20
2023-01-12T04:31:36.855Z,8.24
2023-01-12T04:32:39.946Z,8.21
2023-01-12T04:33:42.809Z,8.19
2023-01-12T04:34:46.051Z,8.19
2023-01-12T04:35:47.614Z,8.20
2023-01-12T04:36:49.186Z,8.24
2023-01-12T04:37:53.715Z,8.27
2023-01-12T04:38:56.542Z,8.23
2023-01-12T04:39:58.004Z,8.27
2023-01-12T04:41:00.907Z,8.32
2023-01-12T04:42:02.414Z,8.33
2023-01-12T04:43:11.861Z,8.31
2023-01-12T04:44:13.452Z,8.35
2023-01-12T04:45:15.166Z,8.36
2023-01-12T04:46:16.805Z,8.33
2023-01-12T04:47:18.301Z,8.24
2023-01-12T04:48:19.930Z,8.25
2023-01-12T04:49:21.777Z,8.32
2023-01-12T04:50:23.327Z,8.36
2023-01-12T04:51:25.740Z,8.36
2023-01-12T04:52:27.273Z,8.27
2023-01-12T04:53:29.633Z,8.28
2023-01-12T04:54:31.220Z,8.26
2023-01-12T04:55:33.799Z,8.30
2023-01-12T04:56:35.307Z,8.22
2023-01-12T04:57:36.857Z,8.22
2023-01-12T04:58:38.435Z,8.19
2023-01-12T04:59:40.100Z,8.17
2023-01-12T05:00:42.519Z,8.14
2023-01-12T05:01:44.139Z,8.11
2023-01-12T05:02:46.003Z,8.10
2023-01-12T05:03:48.083Z,8.09
2023-01-12T05:04:49.784Z,8.04
2023-01-12T05:05:51.377Z,8.03
2023-01-12T05:06:52.905Z,8.02
2023-01-12T05:08:13.356Z,8.01
2023-01-12T05:09:33.733Z,8.01
2023-01-12T05:10:35.772Z,7.97
2023-01-12T05:11:37.704Z,7.98
2023-01-12T05:12:39.497Z,7.95
2023-01-12T05:13:41.279Z,7.90
2023-01-12T05:14:42.701Z,7.90
2023-01-12T05:15:44.947Z,7.95
2023-01-12T05:16:48.703Z,7.97
2023-01-12T05:17:50.476Z,8.01
2023-01-12T05:18:53.711Z,7.96
2023-01-12T05:19:55.890Z,7.96
2023-01-12T05:20:57.587Z,7.96
2023-01-12T05:22:00.903Z,7.88
2023-01-12T05:23:02.704Z,7.93
2023-01-12T05:24:04.336Z,7.97
2023-01-12T05:25:06.520Z,8.02
2023-01-12T05:26:08.515Z,8.07
2023-01-12T05:27:10.099Z,8.00
2023-01-12T05:28:11.774Z,7.93
2023-01-12T05:29:13.818Z,7.92
2023-01-12T05:30:17.228Z,7.84
2023-01-12T05:31:20.217Z,7.85
2023-01-12T05:32:23.699Z,7.86
2023-01-12T05:33:25.832Z,7.92
2023-01-12T05:34:27.709Z,7.85
2023-01-12T05:35:29.667Z,7.84
2023-01-12T05:36:31.610Z,7.84
2023-01-12T05:37:34.256Z,7.84
2023-01-12T05:38:36.242Z,7.73
2023-01-12T05:39:38.039Z,7.76
2023-01-12T05:40:40.229Z,7.77
2023-01-12T05:42:02.143Z,7.76
2023-01-12T05:43:22.583Z,7.82
2023-01-12T05:44:24.393Z,7.83
2023-01-12T05:45:26.237Z,7.81
2023-01-12T05:46:30.927Z,7.79
2023-01-12T05:47:32.509Z,7.78
2023-01-12T05:48:35.320Z,7.75
2023-01-12T05:49:36.886Z,7.76
2023-01-12T05:50:38.587Z,7.78
2023-01-12T05:51:43.346Z,7.75
2023-01-12T05:52:45.247Z,7.74
2023-01-12T05:53:49.640Z,7.68
2023-01-12T05:54:51.291Z,7.66
2023-01-12T05:55:52.893Z,7.65
2023-01-12T05:56:57.296Z,7.68
2023-01-12T05:58:00.225Z,7.68
2023-01-12T05:59:04.304Z,7.67
2023-01-12T06:00:06.453Z,7.69
2023-01-12T06:01:33.870Z,7.70
2023-01-12T06:02:35.486Z,7.64
2023-01-12T06:03:37.957Z,7.62
2023-01-12T06:04:40.111Z,7.58
2023-01-12T06:05:41.702Z,7.61
2023-01-12T06:06:43.471Z,7.65
2023-01-12T06:07:45.186Z,7.61
2023-01-12T06:08:50.192Z,7.67
2023-01-12T06:09:53.112Z,7.72
2023-01-12T06:10:54.922Z,7.70
2023-01-12T06:12:15.505Z,7.63
2023-01-12T06:13:36.325Z,7.58
2023-01-12T06:14:38.297Z,7.58
2023-01-12T06:15:40.549Z,7.55
2023-01-12T06:16:44.094Z,7.52
2023-01-12T06:17:45.821Z,7.53
2023-01-12T06:18:47.664Z,7.58
2023-01-12T06:19:49.540Z,7.60
2023-01-12T06:20:51.313Z,7.58
2023-01-12T06:21:54.430Z,7.62
2023-01-12T06:22:56.146Z,7.60
2023-01-12T06:23:58.097Z,7.57
2023-01-12T06:24:59.869Z,7.54
2023-01-12T06:26:03.168Z,7.62
2023-01-12T06:27:05.044Z,7.62
2023-01-12T06:28:07.074Z,7.62
2023-01-12T06:29:08.868Z,7.59
2023-01-12T06:30:11.287Z,7.55
2023-01-12T06:31:13.858Z,7.55
2023-01-12T06:32:15.522Z,7.58
2023-01-12T06:33:16.989Z,7.59
2023-01-12T06:34:18.832Z,7.65
2023-01-12T06:35:20.404Z,7.64
2023-01-12T06:36:22.284Z,7.57
2023-01-12T06:37:26.873Z,7.54
2023-01-12T06:38:31.702Z,7.56
2023-01-12T06:39:34.544Z,7.54
2023-01-12T06:40:36.340Z,7.60
2023-01-12T06:41:56.727Z,7.58
2023-01-12T06:42:58.482Z,7.52
2023-01-12T06:44:00.146Z,7.59
2023-01-12T06:45:05.367Z,7.58
2023-01-12T06:46:07.042Z,7.63
2023-01-12T06:47:08.611Z,7.59
2023-01-12T06:48:10.319Z,7.61
2023-01-12T06:49:11.907Z,7.66
2023-01-12T06:50:13.551Z,7.66
2023-01-12T06:51:15.184Z,7.64
2023-01-12T06:52:16.657Z,7.61
2023-01-12T06:53:18.901Z,7.61
2023-01-12T06:54:22.274Z,7.60
2023-01-12T06:55:23.777Z,7.60
2023-01-12T06:56:25.469Z,7.62
2023-01-12T06:57:26.937Z,7.59
2023-01-12T06:58:28.432Z,7.66
2023-01-12T06:59:29.918Z,7.68
2023-01-12T07:00:32.519Z,7.63
2023-01-12T07:01:34.157Z,7.55
2023-01-12T07:02:35.898Z,7.62
2023-01-12T07:03:37.428Z,7.64
2023-01-12T07:04:41.252Z,7.69
2023-01-12T07:05:44.117Z,7.61
2023-01-12T07:06:46.893Z,7.62
2023-01-12T07:07:48.854Z,7.57
2023-01-12T07:08:50.984Z,7.60
2023-01-12T07:09:52.954Z,7.50
2023-01-12T07:10:55.641Z,7.53
2023-01-12T07:11:57.598Z,7.57
2023-01-12T07:13:02.402Z,7.62
2023-01-12T07:14:03.957Z,7.57
2023-01-12T07:15:06.889Z,7.57
2023-01-12T07:16:09.115Z,7.54
2023-01-12T07:17:12.742Z,7.53
2023-01-12T07:18:14.455Z,7.51
2023-01-12T07:19:16.400Z,7.52
2023-01-12T07:20:18.220Z,7.54
2023-01-12T07:21:20.310Z,7.51
2023-01-12T07:22:22.361Z,7.53
2023-01-12T07:23:24.440Z,7.57
2023-01-12T07:24:25.984Z,7.53
2023-01-12T07:25:28.051Z,7.57
2023-01-12T07:26:31.676Z,7.57
2023-01-12T07:27:33.199Z,7.61
2023-01-12T07:28:35.035Z,7.62
2023-01-12T07:29:36.711Z,7.58
2023-01-12T07:30:38.858Z,7.56
2023-01-12T07:31:40.872Z,7.56
2023-01-12T07:32:43.551Z,7.57
2023-01-12T07:33:44.997Z,7.56
2023-01-12T07:34:48.399Z,7.64
2023-01-12T07:35:50.057Z,7.66
2023-01-12T07:36:52.217Z,7.63
2023-01-12T07:37:54.210Z,7.62
2023-01-12T07:38:56.198Z,7.60
2023-01-12T07:39:59.155Z,7.60
2023-01-12T07:41:02.054Z,7.64
2023-01-12T07:42:22.420Z,7.66
2023-01-12T07:43:25.272Z,7.67
2023-01-12T07:44:27.320Z,7.65
2023-01-12T07:45:30.133Z,7.66
2023-01-12T07:46:31.707Z,7.67
2023-01-12T07:47:33.401Z,7.66
2023-01-12T07:48:35.785Z,7.65
2023-01-12T07:49:37.381Z,7.65
2023-01-12T07:50:38.833Z,7.65
2023-01-12T07:51:40.680Z,7.63
2023-01-12T07:52:42.337Z,7.64
2023-01-12T07:53:43.965Z,7.62
2023-01-12T07:54:45.519Z,7.62
2023-01-12T07:55:47.002Z,7.62
2023-01-12T07:56:48.598Z,7.62
2023-01-12T07:57:56.811Z,7.64
2023-01-12T07:58:58.435Z,7.64
2023-01-12T07:59:59.906Z,7.67
2023-01-12T08:01:02.718Z,7.74
2023-01-12T08:02:05.259Z,7.76
2023-01-12T08:03:13.764Z,7.78
2023-01-12T08:04:15.388Z,7.82
2023-01-12T08:05:17.290Z,7.83
2023-01-12T08:06:18.998Z,7.83
2023-01-12T08:07:20.689Z,7.81
2023-01-12T08:08:22.457Z,7.82
2023-01-12T08:09:24.298Z,7.84
2023-01-12T08:10:26.156Z,7.85
2023-01-12T08:11:27.853Z,7.82
2023-01-12T08:12:30.488Z,7.84
2023-01-12T08:13:32.626Z,7.88
2023-01-12T08:14:37.536Z,7.92
2023-01-12T08:15:46.527Z,8.03
2023-01-12T08:16:49.690Z,8.18
2023-01-12T08:17:54.913Z,8.33
2023-01-12T08:19:13.473Z,8.25
2023-01-12T08:20:19.981Z,8.24
2023-01-12T08:21:28.528Z,8.27
2023-01-12T08:22:38.453Z,8.41
2023-01-12T08:23:45.626Z,8.47
2023-01-12T08:24:56.368Z,8.53
2023-01-12T08:26:04.293Z,8.60
2023-01-12T08:27:09.375Z,8.63
2023-01-12T08:28:18.539Z,8.63
2023-01-12T08:29:32.054Z,8.66
2023-01-12T08:30:34.379Z,8.66
2023-01-12T08:31:37.556Z,8.62
2023-01-12T08:32:39.182Z,8.65
2023-01-12T08:33:41.802Z,8.68
2023-01-12T08:34:48.366Z,8.71
2023-01-12T08:35:50.037Z,8.76
2023-01-12T08:36:51.699Z,8.77
2023-01-12T08:37:55.170Z,8.80
2023-01-12T08:38:57.596Z,8.78
2023-01-12T08:39:59.586Z,8.79
2023-01-12T08:41:19.638Z,8.82
2023-01-12T08:42:26.383Z,8.90
2023-01-12T08:43:47.702Z,8.86
2023-01-12T08:44:50.389Z,8.84
2023-01-12T08:45:51.896Z,8.85
2023-01-12T08:46:54.425Z,8.93
2023-01-12T08:47:56.193Z,8.91
2023-01-12T08:48:58.496Z,8.99
2023-01-12T08:50:00.704Z,8.93
2023-01-12T08:51:02.668Z,8.97
2023-01-12T08:52:04.350Z,8.96
2023-01-12T08:53:06.411Z,9.04
2023-01-12T08:54:12.843Z,9.06
2023-01-12T08:55:14.579Z,9.02
2023-01-12T08:56:16.214Z,8.98
2023-01-12T08:57:19.423Z,9.02
2023-01-12T08:58:24.140Z,8.98
2023-01-12T08:59:25.977Z,9.04
2023-01-12T09:00:27.786Z,9.08
2023-01-12T09:01:30.059Z,9.10
2023-01-12T09:02:32.081Z,9.06
2023-01-12T09:03:34.495Z,9.08
2023-01-12T09:04:39.661Z,9.16
2023-01-12T09:05:41.348Z,9.20
2023-01-12T09:06:45.243Z,9.18
2023-01-12T09:07:46.893Z,9.12
2023-01-12T09:08:48.773Z,9.11
2023-01-12T09:09:50.834Z,9.17
2023-01-12T09:10:52.468Z,9.20
2023-01-12T09:11:54.139Z,9.18
2023-01-12T09:12:57.055Z,9.25
2023-01-12T09:13:58.837Z,9.29
2023-01-12T09:15:00.318Z,9.29
2023-01-12T09:16:14.451Z,9.29
2023-01-12T09:17:16.695Z,9.29
2023-01-12T09:18:19.764Z,9.30
2023-01-12T09:19:21.799Z,9.35
2023-01-12T09:20:23.515Z,9.38
2023-01-12T09:21:27.806Z,9.41
2023-01-12T09:22:30.154Z,9.44
2023-01-12T09:23:33.031Z,9.42
2023-01-12T09:24:35.150Z,9.40
2023-01-12T09:25:37.077Z,9.36
2023-01-12T09:26:42.358Z,9.39
2023-01-12T09:27:44.017Z,9.39
2023-01-12T09:28:46.916Z,9.37
2023-01-12T09:29:48.727Z,9.37
2023-01-12T09:30:50.340Z,9.36
2023-01-12T09:31:52.518Z,9.41
2023-01-12T09:32:56.612Z,9.39
2023-01-12T09:33:59.304Z,9.42
2023-01-12T09:35:01.005Z,9.47
2023-01-12T09:36:08.645Z,9.51
2023-01-12T09:37:10.860Z,9.50
2023-01-12T09:38:12.449Z,9.60
2023-01-12T09:39:26.854Z,9.51
2023-01-12T09:40:29.636Z,9.48
2023-01-12T09:41:56.003Z,9.48
2023-01-12T09:43:16.152Z,9.53
2023-01-12T09:44:53.455Z,9.62
2023-01-12T09:46:13.696Z,9.66
2023-01-12T09:47:19.530Z,9.64
2023-01-12T09:48:23.277Z,9.65
2023-01-12T09:49:31.556Z,9.61
2023-01-12T09:50:45.406Z,9.63
2023-01-12T09:52:01.581Z,9.67
2023-01-12T09:53:47.499Z,9.69
2023-01-12T09:54:53.369Z,9.74
2023-01-12T09:56:09.409Z,9.77
2023-01-12T09:57:36.935Z,9.68
2023-01-12T09:59:05.292Z,9.68
2023-01-12T10:00:13.114Z,9.78
2023-01-12T10:01:30.052Z,9.71
2023-01-12T10:02:40.162Z,9.72
2023-01-12T10:03:43.475Z,9.72
2023-01-12T10:04:50.703Z,9.78
2023-01-12T10:05:57.900Z,9.77
2023-01-12T10:06:59.689Z,9.73
2023-01-12T10:08:02.509Z,9.67
2023-01-12T10:09:09.845Z,9.71
2023-01-12T10:10:15.717Z,9.70
2023-01-12T10:11:58.275Z,9.72
2023-01-12T10:13:07.197Z,9.77
2023-01-12T10:14:34.100Z,9.82
2023-01-12T10:15:44.655Z,9.79
2023-01-12T10:17:18.510Z,9.76
2023-01-12T10:18:39.897Z,9.76
2023-01-12T10:19:59.171Z,9.83
2023-01-12T10:21:01.223Z,9.90
2023-01-12T10:22:16.237Z,9.88
2023-01-12T10:23:24.702Z,9.85
2023-01-12T10:24:26.535Z,9.86
2023-01-12T10:25:48.450Z,9.85
2023-01-12T10:26:59.700Z,9.86
2023-01-12T10:28:24.325Z,9.86
2023-01-12T10:29:26.462Z,9.81
2023-01-12T10:30:35.390Z,9.86
2023-01-12T10:31:37.509Z,9.88
2023-01-12T10:32:42.055Z,9.98
2023-01-12T10:34:11.833Z,9.96
2023-01-12T10:35:16.934Z,9.99
2023-01-12T10:36:20.003Z,9.98
2023-01-12T10:37:22.024Z,10.05
2023-01-12T10:38:31.171Z,9.98
2023-01-12T10:39:43.530Z,10.02
2023-01-12T10:41:23.005Z,10.12
2023-01-12T10:42:43.815Z,10.13
2023-01-12T10:44:07.677Z,10.08
2023-01-12T10:45:16.871Z,10.12
2023-01-12T10:46:22.376Z,10.09
2023-01-12T10:47:24.231Z,10.07
2023-01-12T10:48:26.806Z,10.08
2023-01-12T10:49:28.513Z,10.16
2023-01-12T10:50:32.963Z,10.15
2023-01-12T10:51:36.324Z,10.27
2023-01-12T10:52:41.218Z,10.26
2023-01-12T10:53:47.072Z,10.21
2023-01-12T10:54:49.676Z,10.27
2023-01-12T10:55:52.200Z,10.36
2023-01-12T10:57:02.934Z,10.35
2023-01-12T10:58:04.383Z,10.31
2023-01-12T10:59:12.031Z,10.30
2023-01-12T11:00:26.240Z,10.28
2023-01-12T11:01:44.511Z,10.32
2023-01-12T11:02:46.245Z,10.32
2023-01-12T11:03:47.825Z,10.32
2023-01-12T11:04:54.565Z,10.37
2023-01-12T11:05:56.236Z,10.42
2023-01-12T11:07:04.984Z,10.43
2023-01-12T11:08:23.471Z,10.44
2023-01-12T11:09:27.223Z,10.42
2023-01-12T11:10:32.019Z,10.37
2023-01-12T11:11:33.856Z,10.42
2023-01-12T11:12:40.696Z,10.43
2023-01-12T11:13:42.274Z,10.44
2023-01-12T11:14:57.990Z,10.45
2023-01-12T11:16:16.840Z,10.47
2023-01-12T11:17:33.729Z,10.48
2023-01-12T11:18:54.026Z,10.52
2023-01-12T11:20:01.737Z,10.53
2023-01-12T11:21:10.778Z,10.57
2023-01-12T11:22:29.014Z,10.62
2023-01-12T11:23:46.725Z,10.61
2023-01-12T11:25:25.402Z,10.58
2023-01-12T11:26:46.185Z,10.56
2023-01-12T11:28:04.285Z,10.48
2023-01-12T11:29:50.551Z,10.57
2023-01-12T11:31:08.911Z,10.57
2023-01-12T11:32:20.455Z,10.61
2023-01-12T11:33:48.538Z,10.57
2023-01-12T11:35:04.922Z,10.72
2023-01-12T11:36:11.801Z,10.69
2023-01-12T11:37:14.969Z,10.57
2023-01-12T11:38:45.885Z,10.62
2023-01-12T11:39:53.878Z,10.63
2023-01-12T11:40:58.642Z,10.68
2023-01-12T11:42:20.665Z,10.72
2023-01-12T11:43:49.732Z,10.71
2023-01-12T11:45:17.333Z,10.73
2023-01-12T11:46:51.957Z,10.79
2023-01-12T11:48:04.393Z,10.80
2023-01-12T11:49:23.577Z,10.73
2023-01-12T11:50:35.571Z,10.75
2023-01-12T11:51:37.629Z,10.79
2023-01-12T11:52:40.380Z,10.86
2023-01-12T11:53:42.804Z,10.80
2023-01-12T11:54:44.625Z,10.84
2023-01-12T11:56:01.582Z,10.78
2023-01-12T11:57:31.416Z,10.74
2023-01-12T11:59:02.468Z,10.69
2023-01-12T12:00:26.681Z,10.80
2023-01-12T12:01:39.463Z,10.81
2023-01-12T12:03:26.246Z,10.81
2023-01-12T12:04:38.406Z,10.83
2023-01-12T12:05:56.632Z,10.84
2023-01-12T12:07:14.271Z,10.91
2023-01-12T12:08:35.900Z,10.95
2023-01-12T12:10:00.106Z,10.88
2023-01-12T12:11:34.637Z,10.84
2023-01-12T12:12:47.035Z,10.84
2023-01-12T12:14:16.758Z,10.88
2023-01-12T12:16:08.139Z,10.85
2023-01-12T12:17:15.179Z,10.88
2023-01-12T12:18:35.069Z,10.82
2023-01-12T12:19:51.757Z,10.81
2023-01-12T12:21:20.413Z,10.77
2023-01-12T12:22:59.745Z,10.72
2023-01-12T12:24:15.855Z,10.74
2023-01-12T12:25:41.728Z,10.76
2023-01-12T12:26:49.565Z,10.68
2023-01-12T12:28:18.519Z,10.67
2023-01-12T12:30:04.587Z,10.73
2023-01-12T12:31:45.553Z,10.67
2023-01-12T12:33:15.430Z,10.66
2023-01-12T12:34:49.469Z,10.68
2023-01-12T12:36:13.486Z,10.65
2023-01-12T12:37:18.888Z,10.70
2023-01-12T12:38:38.204Z,10.67
2023-01-12T12:39:42.833Z,10.68
2023-01-12T12:41:11.923Z,10.71
2023-01-12T12:42:57.042Z,10.68
2023-01-12T12:45:09.978Z,10.66
2023-01-12T12:46:11.705Z,10.63
2023-01-12T12:47:52.950Z,10.57
2023-01-12T12:48:58.112Z,10.52
2023-01-12T12:50:02.793Z,10.52
2023-01-12T12:51:08.042Z,10.46
2023-01-12T12:52:13.125Z,10.46
2023-01-12T12:53:17.339Z,10.49
2023-01-12T12:54:21.851Z,10.45
2023-01-12T12:55:23.731Z,10.46
2023-01-12T12:56:28.283Z,10.49
2023-01-12T12:57:29.795Z,10.53
2023-01-12T12:58:51.368Z,10.45
2023-01-12T12:59:57.045Z,10.47
2023-01-12T13:01:24.842Z,10.42
2023-01-12T13:02:34.732Z,10.47
2023-01-12T13:03:42.501Z,10.38
2023-01-12T13:04:43.930Z,10.46
2023-01-12T13:05:48.720Z,10.50
2023-01-12T13:06:50.556Z,10.46
2023-01-12T13:07:53.311Z,10.40
2023-01-12T13:09:01.155Z,10.39
2023-01-12T13:10:26.446Z,10.41
2023-01-12T13:11:46.971Z,10.44
2023-01-12T13:13:02.872Z,10.45
2023-01-12T13:14:26.856Z,10.39
2023-01-12T13:15:32.491Z,10.40
2023-01-12T13:16:34.321Z,10.37
2023-01-12T13:17:44.892Z,10.37
2023-01-12T13:18:52.809Z,10.38
2023-01-12T13:20:08.273Z,10.41
2023-01-12T13:21:27.321Z,10.40
2023-01-12T13:22:32.159Z,10.40
2023-01-12T13:24:08.728Z,10.52
2023-01-12T13:25:10.239Z,10.48
2023-01-12T13:26:39.587Z,10.50
2023-01-12T13:27:56.974Z,10.47
2023-01-12T13:29:23.676Z,10.49
2023-01-12T13:30:28.511Z,10.47
2023-01-12T13:31:32.878Z,10.41
2023-01-12T13:32:41.249Z,10.40
2023-01-12T13:33:44.211Z,10.34
2023-01-12T13:34:46.630Z,10.39
2023-01-12T13:35:51.099Z,10.40
2023-01-12T13:37:20.831Z,10.47
2023-01-12T13:38:34.258Z,10.42
2023-01-12T13:39:48.827Z,10.39
2023-01-12T13:40:55.581Z,10.39
2023-01-12T13:42:16.306Z,10.36
2023-01-12T13:43:28.699Z,10.41
2023-01-12T13:44:36.649Z,10.41
2023-01-12T13:45:39.630Z,10.40
2023-01-12T13:46:46.355Z,10.42
2023-01-12T13:47:52.576Z,10.37
2023-01-12T13:48:55.994Z,10.44
2023-01-12T13:50:01.569Z,10.44
2023-01-12T13:51:12.477Z,10.48
2023-01-12T13:52:28.899Z,10.42
2023-01-12T13:53:32.044Z,10.50
2023-01-12T13:54:34.478Z,10.57
2023-01-12T13:55:39.651Z,10.62
2023-01-12T13:56:43.007Z,10.63
2023-01-12T13:58:07.036Z,10.62
2023-01-12T13:59:17.901Z,10.54
2023-01-12T14:00:22.267Z,10.55
2023-01-12T14:01:32.514Z,10.60
2023-01-12T14:02:36.709Z,10.52
2023-01-12T14:04:02.228Z,10.54
2023-01-12T14:05:03.941Z,10.48
2023-01-12T14:06:43.610Z,10.49
2023-01-12T14:08:12.834Z,10.45
2023-01-12T14:09:23.658Z,10.45
2023-01-12T14:10:25.241Z,10.43
2023-01-12T14:11:38.648Z,10.39
2023-01-12T14:13:01.911Z,10.49
2023-01-12T14:14:51.935Z,10.50
2023-01-12T14:16:20.894Z,10.64
2023-01-12T14:17:47.101Z,10.64
2023-01-12T14:18:50.265Z,10.58
2023-01-12T14:19:52.001Z,10.55
2023-01-12T14:20:59.051Z,10.62
2023-01-12T14:22:03.521Z,10.57
2023-01-12T14:23:16.515Z,10.56
2023-01-12T14:24:25.244Z,10.54
2023-01-12T14:25:26.793Z,10.57
2023-01-12T14:26:28.514Z,10.60
2023-01-12T14:27:30.071Z,10.53
2023-01-12T14:28:32.672Z,10.51
2023-01-12T14:29:34.872Z,10.47
2023-01-12T14:30:46.840Z,10.50
2023-01-12T14:31:52.375Z,10.49
2023-01-12T14:32:55.253Z,10.43
2023-01-12T14:34:00.710Z,10.42
2023-01-12T14:35:02.307Z,10.43
2023-01-12T14:36:13.195Z,10.40
2023-01-12T14:37:29.696Z,10.40
2023-01-12T14:38:36.208Z,10.44
2023-01-12T14:39:41.391Z,10.45
2023-01-12T14:40:58.397Z,10.44
2023-01-12T14:42:18.794Z,10.45
2023-01-12T14:43:47.311Z,10.38
2023-01-12T14:45:09.547Z,10.37
2023-01-12T14:46:33.435Z,10.33
2023-01-12T14:47:35.314Z,10.31
2023-01-12T14:48:42.365Z,10.29
2023-01-12T14:49:43.797Z,10.26
2023-01-12T14:51:16.416Z,10.24
2023-01-12T14:52:26.436Z,10.20
2023-01-12T14:53:40.443Z,10.16
2023-01-12T14:54:42.722Z,10.17
2023-01-12T14:55:44.325Z,10.16
2023-01-12T14:56:59.674Z,10.16
2023-01-12T14:58:05.519Z,10.19
2023-01-12T14:59:32.197Z,10.07
2023-01-12T15:00:38.382Z,10.08
2023-01-12T15:01:41.604Z,10.10